This is the latest recevied weather packets stored in our database for station/object DB2YI-13. If no packets are shown the sender has not sent any weather packets the latest 10 day(s).
| Time | Temp. | Humidity | Pressure | Rain* | Wind** | Luminosity | Snow |
|---|---|---|---|---|---|---|---|
| 1777996201 | 13.89° C | 86% | - | 2.29 mm | - | - | - |
| 1777995602 | 14.44° C | 84% | - | 1.78 mm | - | - | - |
| 1777995005 | 15° C | 80% | - | 0.51 mm | - | - | - |
| 1777994401 | 16.11° C | 78% | - | 0.25 mm | - | - | - |
| 1777993803 | 16.67° C | 75% | - | 0.25 mm | - | - | - |
| 1777993201 | 18.33° C | 68% | - | 0 mm | - | - | - |
| 1777992604 | 19.44° C | 61% | - | 0 mm | - | - | - |
| 1777992001 | 19.44° C | 60% | - | 0 mm | - | - | - |
| 1777991401 | 19.44° C | 60% | - | 0 mm | - | - | - |
| 1777990801 | 20° C | 60% | - | 0 mm | - | - | - |
| 1777989601 | 20° C | 60% | - | 0 mm | - | - | - |
| 1777989001 | 19.44° C | 60% | - | 0 mm | - | - | - |
| 1777988402 | 20° C | 61% | - | 0 mm | - | - | - |
| 1777987802 | 20° C | 62% | - | 0 mm | - | - | - |
| 1777987201 | 19.44° C | 65% | - | 0 mm | - | - | - |
| 1777986601 | 19.44° C | 65% | - | 0 mm | - | - | - |
| 1777986004 | 19.44° C | 66% | - | 0 mm | - | - | - |
| 1777985401 | 19.44° C | 67% | - | 0 mm | - | - | - |
| 1777984802 | 18.89° C | 67% | - | 0 mm | - | - | - |
| 1777984201 | 18.89° C | 67% | - | 0 mm | - | - | - |
| 1777983603 | 18.89° C | 67% | - | 0 mm | - | - | - |
| 1777983005 | 18.89° C | 67% | - | 0 mm | - | - | - |
| 1777982401 | 18.89° C | 67% | - | 0 mm | - | - | - |
| 1777981803 | 18.89° C | 68% | - | 0 mm | - | - | - |
| 1777981203 | 18.89° C | 67% | - | 0 mm | - | - | - |
* Rain latest hour (hover to see other rain measurements)
** Current wind speed in m/s (hover to see current wind gust speed)